Time;durP1;ratioP1;P1;durP2;ratioP2;P2;SDS_P1;SDS_P2;PMS_P1;PMS_P2;Temp;Humidity;BMP_temperature;BMP_pressure;BME280_temperature;BME280_humidity;BME280_pressure;Samples;Min_cycle;Max_cycle;Signal;HPM_P1;HPM_P2
2021/10/08 00:01:18;;;;;;;10.75;8.02;;;10.50;84.40;;;;;;6171202;28;20918;-76
2021/10/08 00:04:21;;;;;;;8.60;7.57;;;10.50;84.20;;;;;;6172818;28;20440;-77
2021/10/08 00:07:23;;;;;;;9.02;7.50;;;10.60;84.00;;;;;;6171496;28;20465;-76
2021/10/08 00:10:25;;;;;;;9.50;8.57;;;10.60;83.60;;;;;;6171145;28;20973;-76
2021/10/08 00:13:28;;;;;;;8.98;8.02;;;10.50;83.50;;;;;;6171700;28;20507;-76
2021/10/08 00:16:30;;;;;;;9.65;7.93;;;10.50;84.30;;;;;;6171729;28;20806;-76
2021/10/08 00:19:32;;;;;;;10.57;7.93;;;10.50;83.60;;;;;;6172141;28;20416;-76
2021/10/08 00:22:34;;;;;;;9.73;8.73;;;10.40;83.80;;;;;;6171630;28;20424;-76
2021/10/08 00:25:39;;;;;;;9.67;8.67;;;10.40;84.80;;;;;;6171336;28;20507;-76
2021/10/08 00:28:42;;;;;;;9.75;8.77;;;10.40;84.90;;;;;;6171330;28;20770;-76
2021/10/08 00:31:44;;;;;;;9.88;8.48;;;10.40;84.90;;;;;;6171225;28;20420;-75
2021/10/08 00:34:45;;;;;;;8.45;7.30;;;10.50;85.00;;;;;;6171263;28;20431;-76
2021/10/08 00:37:50;;;;;;;9.32;7.57;;;10.50;84.40;;;;;;6212497;23;20428;-77
2021/10/08 00:40:51;;;;;;;7.60;6.80;;;10.50;84.00;;;;;;6221519;28;20509;-78
2021/10/08 00:43:55;;;;;;;8.30;7.50;;;10.50;83.60;;;;;;6197534;28;20496;-77
2021/10/08 00:46:57;;;;;;;9.50;7.18;;;10.50;83.70;;;;;;6200538;28;20476;-77
2021/10/08 00:49:59;;;;;;;8.07;7.28;;;10.40;83.90;;;;;;6200651;28;20418;-78
2021/10/08 00:53:01;;;;;;;9.65;7.90;;;10.50;83.50;;;;;;6198711;28;20586;-77
2021/10/08 00:56:03;;;;;;;9.35;7.90;;;10.40;83.60;;;;;;6200636;28;20446;-77
2021/10/08 00:59:07;;;;;;;8.65;7.75;;;10.40;83.60;;;;;;6199496;28;20414;-77
2021/10/08 01:02:09;;;;;;;8.90;7.63;;;10.40;83.50;;;;;;6199791;28;20422;-77
2021/10/08 01:05:11;;;;;;;8.55;7.75;;;10.30;83.80;;;;;;6199941;28;20441;-77
2021/10/08 01:08:13;;;;;;;8.57;7.78;;;10.30;84.10;;;;;;6199840;28;20430;-77
2021/10/08 01:11:19;;;;;;;8.77;7.65;;;10.20;84.30;;;;;;6199133;28;20418;-77
2021/10/08 01:14:22;;;;;;;11.60;7.30;;;10.20;84.30;;;;;;6199580;28;20844;-77
2021/10/08 01:17:24;;;;;;;9.80;7.85;;;10.20;84.20;;;;;;6199351;28;20552;-77
2021/10/08 01:20:27;;;;;;;8.83;7.33;;;10.20;84.20;;;;;;6199555;28;20433;-77
2021/10/08 01:23:29;;;;;;;8.73;7.82;;;10.10;83.70;;;;;;6199323;28;20438;-77
2021/10/08 01:26:31;;;;;;;8.55;7.28;;;10.10;83.60;;;;;;6199495;28;20422;-77
2021/10/08 01:29:33;;;;;;;12.10;7.82;;;10.10;83.70;;;;;;6199534;28;20546;-77
2021/10/08 01:32:36;;;;;;;8.83;7.80;;;10.10;84.20;;;;;;6199488;28;20814;-77
2021/10/08 01:35:39;;;;;;;9.50;8.52;;;10.10;84.30;;;;;;6199570;28;20942;-77
2021/10/08 01:38:41;;;;;;;11.18;7.95;;;10.10;84.50;;;;;;6198432;28;20499;-77
2021/10/08 01:41:43;;;;;;;10.07;8.68;;;10.10;84.50;;;;;;6198887;28;21134;-77
2021/10/08 01:44:45;;;;;;;9.82;8.73;;;10.00;84.50;;;;;;6199163;28;20439;-77
2021/10/08 01:47:46;;;;;;;9.63;7.78;;;10.10;85.00;;;;;;6198406;28;20448;-77
2021/10/08 01:50:49;;;;;;;9.38;8.52;;;10.00;85.10;;;;;;6198396;28;20462;-77
2021/10/08 01:53:51;;;;;;;10.55;8.35;;;10.00;84.70;;;;;;6198457;28;20422;-77
2021/10/08 01:56:53;;;;;;;9.52;8.45;;;10.00;84.70;;;;;;6197768;28;20971;-77
2021/10/08 01:59:55;;;;;;;9.57;8.68;;;10.00;84.80;;;;;;6198367;28;20488;-77
2021/10/08 02:02:56;;;;;;;9.52;8.52;;;9.80;84.80;;;;;;6198334;28;20418;-77
2021/10/08 02:06:00;;;;;;;9.93;8.95;;;9.80;84.90;;;;;;6198099;28;20426;-77
2021/10/08 02:09:02;;;;;;;9.88;8.27;;;9.80;84.90;;;;;;6198042;28;20584;-77
2021/10/08 02:12:04;;;;;;;9.80;7.68;;;9.80;85.10;;;;;;6199346;28;20433;-77
2021/10/08 02:15:07;;;;;;;8.65;7.75;;;9.80;85.20;;;;;;6198303;28;21052;-77
2021/10/08 02:18:08;;;;;;;9.02;8.23;;;9.80;85.00;;;;;;6197770;28;20812;-77
2021/10/08 02:21:11;;;;;;;8.57;7.75;;;9.80;85.10;;;;;;6198167;28;20576;-77
2021/10/08 02:24:13;;;;;;;7.35;6.65;;;9.80;85.10;;;;;;6198156;28;20800;-77
2021/10/08 02:27:15;;;;;;;9.27;7.07;;;9.90;85.10;;;;;;6197799;28;20425;-77
2021/10/08 02:30:17;;;;;;;10.07;7.93;;;9.90;84.70;;;;;;6197288;28;20460;-77
2021/10/08 02:33:18;;;;;;;8.35;7.35;;;9.90;84.90;;;;;;6197638;28;20422;-77
2021/10/08 02:36:21;;;;;;;8.43;7.25;;;9.80;84.80;;;;;;6198566;28;20442;-78
2021/10/08 02:39:23;;;;;;;9.88;7.30;;;9.80;84.70;;;;;;6198211;28;20418;-77
2021/10/08 02:42:25;;;;;;;9.40;8.47;;;9.80;84.80;;;;;;6198165;28;21217;-77
2021/10/08 02:45:27;;;;;;;10.82;7.85;;;9.80;85.40;;;;;;6197411;28;20418;-77
2021/10/08 02:48:29;;;;;;;9.95;8.30;;;9.80;84.90;;;;;;6197864;28;20438;-77
2021/10/08 02:51:33;;;;;;;9.50;8.40;;;9.80;84.80;;;;;;6197289;28;20422;-78
2021/10/08 02:54:35;;;;;;;11.35;8.38;;;9.80;85.10;;;;;;6197504;28;20947;-77
2021/10/08 02:57:37;;;;;;;9.80;8.13;;;9.70;85.00;;;;;;6197242;28;20429;-77
2021/10/08 03:00:39;;;;;;;10.07;9.07;;;9.70;85.20;;;;;;6197601;28;20923;-77
2021/10/08 03:03:41;;;;;;;11.18;9.95;;;9.70;85.30;;;;;;6197230;28;20427;-77
2021/10/08 03:06:44;;;;;;;9.95;8.95;;;9.70;85.40;;;;;;6196770;28;20422;-77
2021/10/08 03:09:46;;;;;;;11.68;9.00;;;9.60;85.20;;;;;;6195987;28;20418;-77
2021/10/08 03:12:48;;;;;;;11.88;9.32;;;9.60;85.20;;;;;;6197146;28;20438;-77
2021/10/08 03:15:50;;;;;;;9.20;8.30;;;9.60;85.40;;;;;;6197083;28;20425;-77
2021/10/08 03:18:52;;;;;;;10.07;8.68;;;9.60;85.30;;;;;;6196373;28;20429;-77
2021/10/08 03:21:55;;;;;;;10.85;8.52;;;9.60;84.80;;;;;;6196884;28;20504;-77
2021/10/08 03:24:57;;;;;;;11.38;9.10;;;9.60;85.20;;;;;;6197322;28;20439;-77
2021/10/08 03:27:59;;;;;;;10.15;8.85;;;9.60;84.80;;;;;;6196849;28;20448;-77
2021/10/08 03:31:00;;;;;;;10.35;7.97;;;9.60;84.60;;;;;;6196628;28;20418;-77
2021/10/08 03:34:03;;;;;;;9.53;8.30;;;9.60;84.80;;;;;;6196578;28;20430;-77
2021/10/08 03:37:08;;;;;;;10.13;8.10;;;9.60;84.70;;;;;;6196433;28;20457;-77
2021/10/08 03:40:19;;;;;;;11.00;8.05;;;9.60;84.60;;;;;;6197481;28;20452;-77
2021/10/08 03:43:21;;;;;;;9.95;8.32;;;9.50;84.80;;;;;;6196683;28;20938;-77
2021/10/08 03:46:25;;;;;;;10.85;8.98;;;9.50;84.50;;;;;;6196053;28;20427;-77
2021/10/08 03:49:28;;;;;;;9.45;8.45;;;9.50;84.70;;;;;;6196104;28;20415;-77
2021/10/08 03:52:31;;;;;;;12.07;8.07;;;9.40;85.20;;;;;;6196551;28;20445;-77
2021/10/08 03:55:32;;;;;;;9.88;8.13;;;9.50;85.20;;;;;;6196797;28;20426;-76
2021/10/08 03:58:34;;;;;;;9.43;7.43;;;9.50;85.30;;;;;;6196122;28;20426;-77
2021/10/08 04:01:36;;;;;;;11.18;8.02;;;9.50;84.80;;;;;;6196740;28;20418;-78
2021/10/08 04:04:39;;;;;;;8.82;7.78;;;9.50;84.60;;;;;;6196452;28;20795;-77
2021/10/08 04:07:42;;;;;;;10.03;8.17;;;9.40;84.50;;;;;;6195919;28;20556;-77
2021/10/08 04:10:43;;;;;;;9.07;7.78;;;9.40;85.00;;;;;;6195853;28;20418;-77
2021/10/08 04:13:45;;;;;;;9.98;8.60;;;9.40;84.70;;;;;;6196799;28;20438;-77
2021/10/08 04:16:47;;;;;;;9.70;8.80;;;9.30;84.80;;;;;;6196842;28;20473;-77
2021/10/08 04:19:49;;;;;;;11.10;9.73;;;9.20;85.10;;;;;;6197021;28;20414;-76
2021/10/08 04:22:52;;;;;;;10.40;8.45;;;9.20;85.60;;;;;;6200890;28;20419;-77
2021/10/08 04:25:53;;;;;;;9.95;8.93;;;9.20;85.80;;;;;;6200587;28;20422;-76
2021/10/08 04:28:55;;;;;;;9.83;8.83;;;9.20;85.80;;;;;;6200217;28;20920;-77
2021/10/08 04:31:57;;;;;;;9.93;8.93;;;9.20;85.60;;;;;;6200876;28;20528;-77
2021/10/08 04:34:59;;;;;;;11.55;9.43;;;9.10;85.80;;;;;;6200492;28;20418;-76
2021/10/08 04:38:02;;;;;;;11.20;8.63;;;9.20;86.20;;;;;;6200006;28;20995;-76
2021/10/08 04:41:04;;;;;;;10.07;8.83;;;9.20;85.60;;;;;;6200386;28;20434;-77
2021/10/08 04:44:06;;;;;;;10.85;8.65;;;9.20;85.20;;;;;;6200720;28;20434;-77
2021/10/08 04:47:10;;;;;;;10.27;9.17;;;9.20;85.50;;;;;;6201421;28;20429;-76
2021/10/08 04:50:12;;;;;;;10.03;9.03;;;9.10;85.80;;;;;;6199877;28;20418;-76
2021/10/08 04:53:17;;;;;;;10.27;9.18;;;9.10;85.80;;;;;;6200597;28;20414;-77
2021/10/08 04:56:19;;;;;;;10.20;9.20;;;9.10;85.60;;;;;;6200571;28;20953;-77
2021/10/08 04:59:21;;;;;;;11.43;8.55;;;9.10;85.60;;;;;;6200019;28;20812;-77
2021/10/08 05:02:22;;;;;;;10.50;9.27;;;9.10;86.30;;;;;;6200968;28;20434;-77
2021/10/08 05:05:24;;;;;;;10.73;9.63;;;9.10;86.10;;;;;;6199992;28;20422;-77
2021/10/08 05:08:27;;;;;;;14.77;9.77;;;9.10;86.30;;;;;;6200150;28;20448;-77
2021/10/08 05:11:29;;;;;;;12.45;9.18;;;9.10;86.40;;;;;;6199206;28;20493;-77
2021/10/08 05:14:31;;;;;;;12.73;9.40;;;9.20;86.40;;;;;;6199576;28;20796;-77
2021/10/08 05:17:33;;;;;;;10.27;9.20;;;9.20;86.40;;;;;;6199204;28;20431;-77
2021/10/08 05:20:35;;;;;;;12.63;9.85;;;9.10;86.50;;;;;;6199644;28;20537;-77
2021/10/08 05:23:38;;;;;;;12.07;9.35;;;9.20;86.40;;;;;;6199169;28;20426;-77
2021/10/08 05:26:39;;;;;;;9.35;8.30;;;9.20;86.50;;;;;;6199087;28;20426;-77
2021/10/08 05:29:41;;;;;;;11.05;9.07;;;9.10;86.20;;;;;;6198666;28;20564;-76
2021/10/08 05:32:44;;;;;;;13.35;9.82;;;9.20;86.30;;;;;;6198570;28;21292;-77
2021/10/08 05:35:45;;;;;;;11.15;8.93;;;9.20;86.40;;;;;;6198925;28;20426;-77
2021/10/08 05:38:48;;;;;;;10.37;8.73;;;9.20;86.50;;;;;;6198322;28;20512;-76
2021/10/08 05:41:50;;;;;;;10.70;9.33;;;9.20;86.50;;;;;;6198819;28;20418;-77
2021/10/08 05:44:52;;;;;;;9.85;8.73;;;9.20;86.30;;;;;;6198108;28;20965;-76
2021/10/08 05:47:54;;;;;;;11.00;8.77;;;9.30;86.60;;;;;;6199495;28;20436;-77
2021/10/08 05:50:56;;;;;;;9.43;8.57;;;9.30;86.40;;;;;;6198822;28;20779;-76
2021/10/08 05:53:59;;;;;;;10.50;8.70;;;9.30;86.10;;;;;;6199343;28;20418;-77
2021/10/08 05:57:00;;;;;;;10.55;9.45;;;9.30;86.30;;;;;;6198431;28;20927;-77
2021/10/08 06:00:03;;;;;;;11.88;8.73;;;9.30;86.50;;;;;;6198429;28;20564;-77
2021/10/08 06:03:05;;;;;;;12.43;9.98;;;9.30;86.50;;;;;;6198966;28;20419;-77
2021/10/08 06:06:07;;;;;;;13.70;10.02;;;9.40;86.70;;;;;;6198126;28;20533;-77
2021/10/08 06:09:10;;;;;;;11.80;10.07;;;9.30;86.90;;;;;;6197910;28;20572;-77
2021/10/08 06:12:12;;;;;;;11.82;9.70;;;9.40;86.90;;;;;;6198694;28;20438;-77
2021/10/08 06:15:14;;;;;;;11.20;9.75;;;9.50;86.90;;;;;;6198452;28;20952;-77
2021/10/08 06:18:16;;;;;;;10.80;9.70;;;9.60;86.70;;;;;;6197767;28;20522;-77
2021/10/08 06:21:18;;;;;;;11.20;10.10;;;9.60;86.80;;;;;;6197596;28;20769;-77
2021/10/08 06:24:21;;;;;;;15.40;10.23;;;9.70;86.90;;;;;;6198372;28;20439;-77
2021/10/08 06:27:25;;;;;;;11.10;9.82;;;9.80;87.00;;;;;;6188108;28;20459;-76
2021/10/08 06:30:27;;;;;;;10.48;9.23;;;9.90;86.40;;;;;;6194033;28;20423;-77
2021/10/08 06:33:29;;;;;;;11.52;9.48;;;9.90;86.30;;;;;;6205362;28;20421;-77
2021/10/08 06:36:31;;;;;;;11.13;9.43;;;10.10;86.40;;;;;;6224071;28;20447;-77
2021/10/08 06:39:34;;;;;;;13.35;9.57;;;10.20;86.30;;;;;;6193099;23;20448;-75
2021/10/08 06:42:36;;;;;;;9.47;8.47;;;10.30;86.00;;;;;;6173017;28;20415;-75
2021/10/08 06:45:38;;;;;;;13.60;9.75;;;10.30;85.40;;;;;;6169208;28;20921;-77
2021/10/08 06:48:40;;;;;;;10.50;8.63;;;10.50;85.60;;;;;;6157381;28;20444;-75
2021/10/08 06:51:42;;;;;;;9.93;8.35;;;10.70;85.20;;;;;;6148377;28;20987;-76
2021/10/08 06:54:45;;;;;;;11.40;8.52;;;10.90;85.10;;;;;;6148527;28;20508;-76
2021/10/08 06:57:46;;;;;;;10.27;7.70;;;11.10;84.30;;;;;;6156212;28;20426;-75
2021/10/08 07:00:52;;;;;;;8.73;7.93;;;11.30;83.70;;;;;;6169548;28;21028;-75
2021/10/08 07:03:54;;;;;;;9.02;7.65;;;11.60;82.80;;;;;;6172255;28;20428;-75
2021/10/08 07:06:56;;;;;;;8.02;7.22;;;11.90;81.30;;;;;;6172214;28;20438;-75
2021/10/08 07:09:59;;;;;;;8.82;7.00;;;12.10;80.40;;;;;;6171555;28;20432;-75
2021/10/08 07:13:01;;;;;;;10.20;7.50;;;12.40;79.50;;;;;;6172016;28;20441;-75
2021/10/08 07:16:02;;;;;;;9.25;7.85;;;12.70;78.60;;;;;;6172118;28;20906;-75
2021/10/08 07:19:09;;;;;;;10.10;8.63;;;12.90;77.40;;;;;;6171384;28;20424;-76
2021/10/08 07:22:12;;;;;;;7.18;6.47;;;13.20;76.50;;;;;;6172080;28;20424;-75
2021/10/08 07:25:15;;;;;;;9.30;7.32;;;13.40;75.30;;;;;;6171805;28;20427;-76
2021/10/08 07:28:18;;;;;;;10.47;6.60;;;13.60;75.50;;;;;;6162090;28;20463;-76
2021/10/08 07:31:20;;;;;;;7.50;6.80;;;13.90;73.30;;;;;;6171298;28;20511;-75
2021/10/08 07:34:22;;;;;;;6.55;5.85;;;14.20;72.40;;;;;;6173778;28;20515;-76
2021/10/08 07:37:23;;;;;;;6.75;6.05;;;14.30;71.60;;;;;;6175039;28;20423;-76
2021/10/08 07:40:27;;;;;;;6.15;5.38;;;14.40;72.20;;;;;;6171981;28;20485;-75
2021/10/08 07:43:28;;;;;;;8.15;6.65;;;14.60;70.90;;;;;;6171678;28;21057;-75
2021/10/08 07:46:30;;;;;;;8.15;6.50;;;14.70;71.40;;;;;;6161889;28;20923;-76
2021/10/08 07:49:32;;;;;;;9.20;6.45;;;14.90;69.70;;;;;;6146680;28;20855;-76
2021/10/08 07:52:35;;;;;;;8.00;6.33;;;15.00;69.30;;;;;;6148012;28;20441;-75
2021/10/08 07:55:38;;;;;;;8.90;6.60;;;14.90;68.60;;;;;;6171906;28;20502;-75
2021/10/08 07:58:39;;;;;;;6.95;6.25;;;14.90;68.90;;;;;;6187991;28;20557;-76
2021/10/08 08:01:41;;;;;;;8.43;5.88;;;14.90;68.80;;;;;;6200689;28;20441;-76
2021/10/08 08:04:43;;;;;;;6.82;6.13;;;14.80;69.20;;;;;;6200805;28;20441;-76
2021/10/08 08:07:46;;;;;;;9.65;8.65;;;14.80;68.90;;;;;;6193024;28;20925;-75
2021/10/08 08:10:49;;;;;;;7.35;6.15;;;14.80;69.60;;;;;;6175533;28;20502;-75
2021/10/08 08:13:51;;;;;;;8.00;6.05;;;14.80;68.60;;;;;;6162531;28;20429;-76
2021/10/08 08:16:53;;;;;;;6.78;6.18;;;14.90;69.20;;;;;;6152121;28;20452;-76
2021/10/08 08:19:55;;;;;;;8.98;6.28;;;15.00;68.50;;;;;;6152377;28;20446;-76
2021/10/08 08:22:56;;;;;;;8.00;5.40;;;15.10;68.50;;;;;;6152041;28;20422;-77
2021/10/08 08:26:00;;;;;;;5.40;4.90;;;15.10;67.90;;;;;;6152397;28;20428;-76
2021/10/08 08:29:01;;;;;;;8.07;6.38;;;15.30;68.80;;;;;;6166932;28;20440;-77
2021/10/08 08:32:04;;;;;;;8.20;6.10;;;15.40;67.80;;;;;;6175777;28;20448;-76
2021/10/08 08:35:07;;;;;;;6.70;5.80;;;15.60;66.40;;;;;;6176008;28;20427;-76
2021/10/08 08:38:09;;;;;;;16.63;6.82;;;15.60;65.90;;;;;;6175603;28;20424;-76
2021/10/08 08:41:12;;;;;;;9.27;6.20;;;15.60;66.30;;;;;;6175489;28;20458;-77
2021/10/08 08:44:14;;;;;;;7.93;5.35;;;15.80;67.20;;;;;;6175843;28;20442;-77
2021/10/08 08:47:17;;;;;;;7.10;5.13;;;16.10;66.00;;;;;;6174958;28;20424;-76
2021/10/08 08:50:19;;;;;;;5.70;5.15;;;16.20;64.80;;;;;;6174361;28;20578;-76
2021/10/08 08:53:22;;;;;;;7.93;5.90;;;16.10;64.90;;;;;;6175213;28;20412;-76
2021/10/08 08:56:25;;;;;;;7.28;5.10;;;16.10;65.70;;;;;;6175826;28;21113;-76
2021/10/08 08:59:27;;;;;;;9.73;5.95;;;16.20;64.80;;;;;;6166654;28;20423;-75
2021/10/08 09:02:30;;;;;;;6.60;4.47;;;16.30;64.40;;;;;;6175143;28;20416;-76
2021/10/08 09:05:33;;;;;;;8.93;5.75;;;16.40;65.60;;;;;;6174579;28;20427;-75
2021/10/08 09:08:36;;;;;;;6.10;5.15;;;16.70;64.60;;;;;;6174238;28;21044;-75
2021/10/08 09:11:39;;;;;;;6.57;4.53;;;17.00;64.00;;;;;;6174691;28;20428;-76
2021/10/08 09:14:41;;;;;;;6.13;5.00;;;17.30;62.10;;;;;;6174686;28;20423;-75
2021/10/08 09:17:44;;;;;;;7.43;4.90;;;17.40;61.60;;;;;;6174562;28;20446;-76
2021/10/08 09:21:01;;;;;;;6.07;5.20;;;17.40;62.30;;;;;;6174708;28;20518;-75
2021/10/08 09:24:22;;;;;;;6.60;4.53;;;17.40;61.40;;;;;;6173143;28;20590;-75
2021/10/08 09:27:25;;;;;;;8.38;4.82;;;17.30;62.20;;;;;;6172184;28;20440;-77
2021/10/08 09:30:35;;;;;;;6.97;4.25;;;17.50;61.00;;;;;;6168569;28;21255;-77
2021/10/08 09:33:38;;;;;;;5.28;4.78;;;17.70;61.10;;;;;;6174203;28;20549;-77
2021/10/08 09:36:43;;;;;;;5.30;4.80;;;17.80;60.50;;;;;;6175003;28;20571;-76
2021/10/08 09:39:50;;;;;;;6.97;4.17;;;17.80;60.10;;;;;;6173813;28;20477;-76
2021/10/08 09:43:02;;;;;;;5.30;4.50;;;18.00;60.40;;;;;;6174308;28;20482;-75
2021/10/08 09:46:05;;;;;;;5.03;4.53;;;18.10;60.40;;;;;;6174262;28;20416;-76
2021/10/08 09:49:06;;;;;;;8.68;5.22;;;18.00;59.80;;;;;;6172461;28;21034;-76
2021/10/08 09:52:28;;;;;;;6.10;4.90;;;18.00;60.50;;;;;;6174062;28;20531;-75
2021/10/08 09:55:30;;;;;;;6.45;4.70;;;17.80;59.90;;;;;;6170882;28;21042;-75
2021/10/08 09:58:52;;;;;;;7.50;4.28;;;17.70;61.90;;;;;;6164777;28;20423;-75
2021/10/08 10:02:04;;;;;;;5.78;4.72;;;17.80;61.30;;;;;;6172941;28;20485;-75
2021/10/08 10:05:07;;;;;;;7.60;5.15;;;18.00;60.60;;;;;;6173332;28;20490;-75
2021/10/08 10:08:09;;;;;;;5.65;4.80;;;17.90;61.10;;;;;;6174407;28;20439;-75
2021/10/08 10:11:12;;;;;;;11.35;4.97;;;17.90;62.10;;;;;;6173295;28;20431;-75
2021/10/08 10:14:15;;;;;;;6.00;4.63;;;18.00;61.80;;;;;;6173659;28;20420;-75
2021/10/08 10:17:18;;;;;;;6.30;4.50;;;17.90;60.90;;;;;;6173046;28;20466;-75
2021/10/08 10:20:20;;;;;;;10.25;4.45;;;17.80;62.50;;;;;;6173575;28;20482;-75
2021/10/08 10:23:23;;;;;;;6.95;4.65;;;17.80;62.30;;;;;;6173512;28;20427;-75
2021/10/08 10:26:27;;;;;;;8.95;5.15;;;17.60;61.90;;;;;;6173147;28;20907;-75
2021/10/08 10:29:31;;;;;;;5.28;4.72;;;17.60;62.10;;;;;;6164824;28;20462;-75
2021/10/08 10:32:34;;;;;;;5.25;4.43;;;17.50;61.30;;;;;;6173411;28;20547;-75
2021/10/08 10:35:41;;;;;;;6.57;4.70;;;17.50;61.40;;;;;;6173086;28;20470;-75
2021/10/08 10:38:43;;;;;;;6.87;5.03;;;17.50;61.70;;;;;;6172533;28;20503;-75
2021/10/08 10:41:46;;;;;;;6.80;4.18;;;17.40;61.60;;;;;;6172974;28;20416;-75
2021/10/08 10:45:12;;;;;;;7.50;5.03;;;17.50;61.90;;;;;;6173251;28;20505;-75
2021/10/08 10:48:18;;;;;;;8.03;4.50;;;17.50;61.80;;;;;;6173154;28;20419;-75
2021/10/08 10:51:20;;;;;;;6.60;4.78;;;17.60;62.60;;;;;;6172382;28;20505;-75
2021/10/08 10:54:59;;;;;;;7.20;4.77;;;17.60;62.10;;;;;;6172633;28;20513;-75
2021/10/08 10:58:16;;;;;;;7.53;4.72;;;17.50;62.40;;;;;;6165717;28;20540;-75
2021/10/08 11:01:30;;;;;;;5.38;4.88;;;17.50;62.90;;;;;;6148356;28;20420;-75
2021/10/08 11:04:33;;;;;;;11.23;5.00;;;17.40;63.10;;;;;;6149138;29;20511;-76
2021/10/08 11:07:35;;;;;;;9.32;5.22;;;17.30;62.90;;;;;;6147934;28;20980;-75
2021/10/08 11:10:38;;;;;;;4.97;4.47;;;17.10;63.20;;;;;;6148020;28;20425;-75
2021/10/08 11:13:40;;;;;;;6.40;5.03;;;17.10;64.40;;;;;;6148121;28;20449;-76
2021/10/08 11:16:43;;;;;;;8.63;4.90;;;17.10;64.50;;;;;;6148949;28;20448;-75
2021/10/08 11:19:45;;;;;;;7.77;5.53;;;17.30;64.30;;;;;;6147806;28;20550;-75
2021/10/08 11:22:47;;;;;;;6.22;4.88;;;17.30;63.70;;;;;;6147966;28;20425;-75
2021/10/08 11:25:52;;;;;;;6.68;5.32;;;17.20;63.80;;;;;;6148061;28;20426;-76
2021/10/08 11:28:57;;;;;;;7.47;5.33;;;17.10;64.20;;;;;;6160412;28;20488;-76
2021/10/08 11:32:05;;;;;;;7.25;4.97;;;17.10;64.10;;;;;;6172184;28;20443;-76
2021/10/08 11:35:08;;;;;;;7.68;5.63;;;17.10;64.10;;;;;;6172103;28;20423;-76
2021/10/08 11:38:09;;;;;;;8.82;6.15;;;17.20;63.80;;;;;;6171815;28;20434;-76
2021/10/08 11:41:20;;;;;;;8.90;5.90;;;17.30;63.70;;;;;;6171781;28;20440;-75
2021/10/08 11:44:24;;;;;;;8.93;6.05;;;17.30;64.00;;;;;;6172690;28;20481;-77
2021/10/08 11:47:34;;;;;;;9.13;6.72;;;17.30;64.60;;;;;;6173140;28;20468;-76
2021/10/08 11:50:45;;;;;;;8.38;6.32;;;17.30;64.00;;;;;;6171538;28;20502;-76
2021/10/08 11:53:49;;;;;;;8.07;5.93;;;17.30;63.80;;;;;;6171387;28;20483;-77
2021/10/08 11:57:02;;;;;;;7.47;5.97;;;17.40;64.70;;;;;;6171992;28;20860;-77
2021/10/08 12:00:05;;;;;;;8.10;5.75;;;17.50;64.20;;;;;;6163882;28;20571;-76
2021/10/08 12:03:10;;;;;;;8.80;5.60;;;17.70;64.00;;;;;;6171547;28;20466;-76
2021/10/08 12:06:12;;;;;;;12.83;6.33;;;17.90;63.80;;;;;;6171627;28;20548;-76
2021/10/08 12:09:18;;;;;;;7.45;5.75;;;18.00;63.30;;;;;;6171211;28;20420;-76
2021/10/08 12:12:21;;;;;;;9.35;6.55;;;18.20;63.10;;;;;;6171729;28;20483;-76
2021/10/08 12:15:24;;;;;;;9.60;6.68;;;18.30;62.70;;;;;;6171652;28;20420;-76
2021/10/08 12:18:27;;;;;;;7.22;6.20;;;18.20;61.90;;;;;;6171329;28;20424;-76
2021/10/08 12:21:31;;;;;;;9.00;6.10;;;18.10;62.40;;;;;;6171343;28;20420;-76
2021/10/08 12:24:33;;;;;;;9.15;6.38;;;18.00;62.80;;;;;;6171724;28;20574;-76
2021/10/08 12:27:35;;;;;;;10.17;6.60;;;17.90;62.70;;;;;;6167571;28;20459;-76
2021/10/08 12:30:51;;;;;;;7.70;6.65;;;17.80;62.80;;;;;;6166570;28;20925;-76
2021/10/08 12:33:54;;;;;;;9.50;7.30;;;17.70;63.50;;;;;;6171363;28;20497;-76
2021/10/08 12:36:58;;;;;;;8.55;7.22;;;17.80;63.70;;;;;;6171709;28;21089;-76
2021/10/08 12:40:08;;;;;;;11.32;7.63;;;17.70;63.10;;;;;;6214313;23;20481;-77
2021/10/08 12:43:21;;;;;;;8.35;7.40;;;17.70;63.30;;;;;;6180976;28;20480;-77
2021/10/08 12:46:30;;;;;;;8.80;7.70;;;17.90;62.80;;;;;;6195546;28;20491;-77
2021/10/08 12:49:44;;;;;;;10.30;7.40;;;17.90;63.80;;;;;;6204406;28;20987;-78
2021/10/08 12:52:48;;;;;;;7.80;7.00;;;18.10;63.10;;;;;;6204048;28;20506;-78
2021/10/08 12:55:50;;;;;;;8.57;7.50;;;18.20;63.10;;;;;;6187960;28;21070;-78
2021/10/08 12:58:53;;;;;;;10.87;7.50;;;18.30;63.00;;;;;;6178475;28;20540;-78
2021/10/08 13:01:56;;;;;;;10.20;7.60;;;18.20;61.80;;;;;;6202154;28;20429;-77
2021/10/08 13:05:07;;;;;;;9.27;7.60;;;18.00;62.60;;;;;;6204827;28;20437;-78
2021/10/08 13:08:13;;;;;;;9.23;8.27;;;17.90;63.10;;;;;;6203371;28;21262;-78
2021/10/08 13:11:15;;;;;;;9.23;6.97;;;17.80;63.80;;;;;;6202949;28;20508;-77
2021/10/08 13:14:19;;;;;;;11.38;7.53;;;17.80;64.10;;;;;;6202037;28;20425;-77
2021/10/08 13:17:21;;;;;;;9.18;6.07;;;17.90;64.20;;;;;;6201620;28;20463;-78
2021/10/08 13:20:27;;;;;;;8.50;7.27;;;18.10;63.70;;;;;;6191835;28;20487;-76
2021/10/08 13:23:31;;;;;;;10.05;7.78;;;18.10;62.90;;;;;;6164001;28;20539;-77
2021/10/08 13:26:34;;;;;;;9.17;7.90;;;18.10;63.50;;;;;;6160793;28;20460;-77
2021/10/08 13:29:36;;;;;;;9.38;7.82;;;18.10;63.30;;;;;;6192720;28;20472;-78
2021/10/08 13:32:38;;;;;;;8.98;7.63;;;18.20;64.10;;;;;;6200439;28;20435;-77
2021/10/08 13:35:41;;;;;;;9.25;8.15;;;18.30;63.30;;;;;;6201431;28;20422;-78
2021/10/08 13:38:42;;;;;;;8.43;7.43;;;18.30;62.50;;;;;;6202890;28;20444;-77
2021/10/08 13:41:44;;;;;;;10.90;7.93;;;18.20;62.90;;;;;;6201384;28;20422;-76
2021/10/08 13:44:46;;;;;;;10.47;8.40;;;18.20;63.10;;;;;;6199873;28;20576;-77
2021/10/08 13:47:48;;;;;;;9.80;7.85;;;18.10;63.80;;;;;;6198969;28;20422;-77
2021/10/08 13:50:51;;;;;;;9.18;7.82;;;18.20;63.60;;;;;;6198070;28;20421;-77
2021/10/08 13:53:53;;;;;;;9.55;7.40;;;18.50;62.80;;;;;;6198002;28;20810;-76
2021/10/08 13:56:55;;;;;;;11.48;8.55;;;18.70;62.50;;;;;;6196201;28;20512;-78
2021/10/08 13:59:56;;;;;;;9.50;8.15;;;18.80;62.30;;;;;;6190207;28;20438;-76
2021/10/08 14:03:01;;;;;;;10.88;7.22;;;18.80;62.70;;;;;;6197566;28;20430;-77
2021/10/08 14:06:15;;;;;;;9.50;7.90;;;18.80;62.40;;;;;;6197714;28;20902;-77
2021/10/08 14:12:36;;;;;;;9.40;7.63;;;18.60;62.80;;;;;;6177856;28;20480;-76
2021/10/08 14:15:37;;;;;;;10.55;8.07;;;18.40;63.80;;;;;;6198969;28;20425;-76
2021/10/08 14:18:39;;;;;;;8.90;8.00;;;18.40;63.50;;;;;;6197844;28;20462;-76
2021/10/08 14:21:42;;;;;;;9.77;8.23;;;18.40;64.30;;;;;;6193709;28;21049;-76
2021/10/08 14:24:44;;;;;;;9.65;8.13;;;18.40;63.30;;;;;;6153470;28;20448;-76
2021/10/08 14:27:46;;;;;;;9.87;8.87;;;18.40;63.10;;;;;;6172184;28;20420;-76
2021/10/08 14:30:47;;;;;;;10.77;8.43;;;18.40;63.60;;;;;;6194077;28;20498;-76
2021/10/08 14:33:49;;;;;;;9.75;8.75;;;18.50;63.10;;;;;;6197197;28;20466;-76
2021/10/08 14:36:52;;;;;;;9.23;8.10;;;18.50;63.10;;;;;;6197733;28;20534;-76
2021/10/08 14:39:55;;;;;;;10.70;9.60;;;18.40;63.60;;;;;;6197216;28;20477;-76
2021/10/08 14:42:57;;;;;;;9.50;8.32;;;18.20;63.90;;;;;;6197280;28;20429;-77
2021/10/08 14:45:58;;;;;;;11.38;8.15;;;18.10;63.40;;;;;;6196894;28;20873;-76
2021/10/08 14:49:00;;;;;;;10.35;8.88;;;18.10;64.10;;;;;;6196707;28;20442;-76
2021/10/08 14:52:05;;;;;;;9.77;8.55;;;18.10;64.10;;;;;;6197270;28;20785;-76
2021/10/08 14:55:20;;;;;;;11.35;8.70;;;18.10;64.20;;;;;;6196838;28;20530;-76
2021/10/08 14:58:22;;;;;;;10.05;8.18;;;18.00;64.30;;;;;;6185994;28;20428;-76
2021/10/08 15:01:26;;;;;;;9.73;8.82;;;17.90;64.90;;;;;;6196489;28;20426;-75
2021/10/08 15:04:27;;;;;;;9.45;8.55;;;17.80;64.70;;;;;;6196854;28;20433;-76
2021/10/08 15:07:30;;;;;;;9.27;7.85;;;17.90;64.60;;;;;;6196309;28;20450;-76
2021/10/08 15:10:32;;;;;;;9.07;8.17;;;18.00;64.80;;;;;;6196006;28;20884;-76
2021/10/08 15:13:34;;;;;;;11.85;8.27;;;18.10;64.40;;;;;;6195910;28;20425;-76
2021/10/08 15:16:36;;;;;;;10.82;8.63;;;18.10;63.90;;;;;;6197105;28;20438;-76
2021/10/08 15:19:37;;;;;;;9.02;8.13;;;18.10;63.80;;;;;;6195662;28;20422;-76
2021/10/08 15:22:41;;;;;;;10.47;8.73;;;18.00;64.10;;;;;;6193110;28;20586;-75
2021/10/08 15:25:42;;;;;;;9.75;8.75;;;17.90;63.60;;;;;;6165459;28;20788;-76
2021/10/08 15:28:44;;;;;;;9.10;7.97;;;17.80;64.20;;;;;;6182612;28;20436;-76
2021/10/08 15:31:46;;;;;;;8.13;7.32;;;17.90;63.40;;;;;;6195807;28;20418;-76
2021/10/08 15:34:49;;;;;;;10.40;8.13;;;17.80;63.40;;;;;;6195820;28;20919;-76
2021/10/08 15:37:52;;;;;;;9.40;7.85;;;17.60;63.90;;;;;;6196215;28;20422;-76
2021/10/08 15:40:54;;;;;;;11.18;8.30;;;17.60;63.70;;;;;;6195627;28;20931;-75
2021/10/08 15:43:56;;;;;;;9.27;7.85;;;17.50;65.40;;;;;;6196549;28;20434;-76
2021/10/08 15:46:58;;;;;;;10.93;7.97;;;17.50;64.70;;;;;;6195795;28;20440;-77
2021/10/08 15:49:59;;;;;;;10.07;8.00;;;17.50;64.90;;;;;;6195887;28;20430;-76
2021/10/08 15:53:03;;;;;;;9.30;8.18;;;17.40;65.50;;;;;;6195785;28;20437;-76
2021/10/08 15:56:05;;;;;;;8.95;7.35;;;17.40;66.40;;;;;;6194791;28;20436;-76